Time;durP1;ratioP1;P1;durP2;ratioP2;P2;SDS_P1;SDS_P2;PMS_P1;PMS_P2;Temp;Humidity;BMP_temperature;BMP_pressure;BME280_temperature;BME280_humidity;BME280_pressure;Samples;Min_cycle;Max_cycle;Signal;HPM_P1;HPM_P2
2023/12/01 00:01:45;;;;;;;22.60;10.18;;;;;;;;;;5063212;28;20571;-36
2023/12/01 00:04:11;;;;;;;23.38;8.90;;;;;;;;;;5061480;28;20070;-38
2023/12/01 00:06:37;;;;;;;23.27;8.48;;;;;;;;;;5061393;28;20895;-38
2023/12/01 00:09:03;;;;;;;29.63;10.45;;;;;;;;;;5056793;28;20032;-39
2023/12/01 00:11:28;;;;;;;25.42;11.50;;;;;;;;;;5063828;28;20082;-38
2023/12/01 00:13:53;;;;;;;21.55;9.57;;;;;;;;;;5061745;28;20131;-38
2023/12/01 00:16:19;;;;;;;17.13;8.82;;;;;;;;;;5062617;28;20021;-38
2023/12/01 00:18:44;;;;;;;20.80;8.55;;;;;;;;;;5055744;28;20460;-38
2023/12/01 00:21:10;;;;;;;12.73;5.45;;;;;;;;;;5062176;28;20451;-39
2023/12/01 00:23:35;;;;;;;20.67;8.63;;;;;;;;;;5065208;28;20046;-39
2023/12/01 00:26:01;;;;;;;19.48;7.72;;;;;;;;;;5062381;28;20033;-39
2023/12/01 00:28:26;;;;;;;19.42;8.10;;;;;;;;;;5058189;28;20518;-40
2023/12/01 00:30:52;;;;;;;21.58;10.15;;;;;;;;;;5058393;28;20051;-38
2023/12/01 00:33:17;;;;;;;29.42;12.05;;;;;;;;;;5060783;28;20402;-38
2023/12/01 00:35:42;;;;;;;26.67;10.80;;;;;;;;;;5060379;28;20013;-37
2023/12/01 00:38:08;;;;;;;28.33;9.77;;;;;;;;;;5032328;28;20093;-37
2023/12/01 00:40:33;;;;;;;27.15;9.70;;;;;;;;;;5057085;28;20067;-38
2023/12/01 00:42:58;;;;;;;21.13;9.13;;;;;;;;;;5041391;28;20035;-40
2023/12/01 00:45:24;;;;;;;21.48;9.40;;;;;;;;;;5061446;28;20249;-39
2023/12/01 00:47:49;;;;;;;24.08;9.45;;;;;;;;;;5061573;28;20104;-38
2023/12/01 00:50:14;;;;;;;21.45;9.00;;;;;;;;;;5060697;28;20024;-38
2023/12/01 00:52:40;;;;;;;23.00;9.23;;;;;;;;;;5066022;28;20491;-40
2023/12/01 00:55:05;;;;;;;27.50;13.02;;;;;;;;;;5059584;28;20024;-38
2023/12/01 00:57:31;;;;;;;20.75;9.95;;;;;;;;;;5058057;28;20396;-38
2023/12/01 00:59:56;;;;;;;19.20;7.50;;;;;;;;;;5057240;28;20035;-38
2023/12/01 01:02:22;;;;;;;13.68;7.13;;;;;;;;;;5062195;28;20099;-38
2023/12/01 01:04:47;;;;;;;20.70;8.73;;;;;;;;;;5043735;28;20064;-39
2023/12/01 01:07:12;;;;;;;17.58;7.30;;;;;;;;;;5040397;28;20025;-39
2023/12/01 01:09:38;;;;;;;17.27;8.48;;;;;;;;;;5055764;28;20029;-39
2023/12/01 01:12:03;;;;;;;18.45;8.63;;;;;;;;;;5060744;28;20411;-37
2023/12/01 01:14:28;;;;;;;16.48;8.10;;;;;;;;;;5062444;28;20048;-38
2023/12/01 01:16:54;;;;;;;17.80;8.43;;;;;;;;;;5063684;28;20029;-38
2023/12/01 01:19:19;;;;;;;17.25;7.80;;;;;;;;;;5065234;28;20016;-38
2023/12/01 01:21:44;;;;;;;20.45;7.55;;;;;;;;;;5036330;28;20028;-38
2023/12/01 01:24:10;;;;;;;16.80;6.60;;;;;;;;;;5045690;28;20118;-39
2023/12/01 01:26:36;;;;;;;15.52;6.60;;;;;;;;;;5063928;28;20136;-38
2023/12/01 01:29:02;;;;;;;20.48;7.53;;;;;;;;;;5063626;28;20107;-38
2023/12/01 01:31:27;;;;;;;26.13;8.90;;;;;;;;;;5063435;28;20111;-39
2023/12/01 01:33:52;;;;;;;18.92;10.05;;;;;;;;;;5058967;28;20041;-38
2023/12/01 01:36:18;;;;;;;22.10;7.70;;;;;;;;;;5063532;28;20064;-39
2023/12/01 01:38:43;;;;;;;18.15;8.65;;;;;;;;;;5053335;28;20040;-39
2023/12/01 01:41:09;;;;;;;14.48;5.07;;;;;;;;;;5061273;28;20517;-38
2023/12/01 01:43:34;;;;;;;11.98;4.45;;;;;;;;;;5068259;28;20113;-38
2023/12/01 01:46:05;;;;;;;19.70;8.48;;;;;;;;;;5045731;28;20036;-38
2023/12/01 01:48:30;;;;;;;17.35;8.38;;;;;;;;;;5066292;28;20118;-39
2023/12/01 01:50:56;;;;;;;25.73;8.82;;;;;;;;;;5046302;28;20884;-38
2023/12/01 01:53:22;;;;;;;20.13;8.63;;;;;;;;;;5065268;28;20025;-40
2023/12/01 01:55:48;;;;;;;18.73;9.18;;;;;;;;;;5055916;28;20021;-39
2023/12/01 01:58:13;;;;;;;18.20;8.20;;;;;;;;;;5062207;28;20387;-39
2023/12/01 02:00:38;;;;;;;14.50;6.93;;;;;;;;;;5065372;28;20210;-39
2023/12/01 02:03:04;;;;;;;17.30;7.13;;;;;;;;;;5045155;28;20414;-39
2023/12/01 02:05:30;;;;;;;20.13;9.10;;;;;;;;;;5061677;28;20122;-39
2023/12/01 02:07:55;;;;;;;18.52;8.45;;;;;;;;;;5056219;28;20028;-38
2023/12/01 02:10:20;;;;;;;16.77;7.28;;;;;;;;;;5052656;28;20028;-39
2023/12/01 02:12:46;;;;;;;18.15;8.07;;;;;;;;;;5050480;28;20388;-39
2023/12/01 02:15:12;;;;;;;18.75;7.07;;;;;;;;;;5048350;28;20111;-39
2023/12/01 02:17:38;;;;;;;16.15;7.40;;;;;;;;;;5033676;28;20319;-39
2023/12/01 02:20:05;;;;;;;14.10;6.95;;;;;;;;;;5056496;28;22737;-39
2023/12/01 02:22:31;;;;;;;15.70;8.27;;;;;;;;;;5040599;28;20020;-38
2023/12/01 02:24:56;;;;;;;15.70;8.75;;;;;;;;;;5057000;28;20052;-38
2023/12/01 02:27:21;;;;;;;23.67;8.55;;;;;;;;;;5057930;28;20048;-38
2023/12/01 02:29:46;;;;;;;17.08;7.38;;;;;;;;;;5061279;28;20023;-39
2023/12/01 02:32:12;;;;;;;23.50;8.73;;;;;;;;;;5059499;28;23357;-38
2023/12/01 02:34:37;;;;;;;22.95;8.30;;;;;;;;;;5058138;28;20028;-39
2023/12/01 02:37:02;;;;;;;15.98;7.22;;;;;;;;;;5057515;28;20562;-39
2023/12/01 02:39:28;;;;;;;11.13;4.28;;;;;;;;;;5057925;28;20032;-39
2023/12/01 02:41:53;;;;;;;17.88;7.15;;;;;;;;;;5062723;28;20025;-39
2023/12/01 02:44:18;;;;;;;15.18;7.43;;;;;;;;;;5057958;28;20028;-39
2023/12/01 02:46:44;;;;;;;16.15;8.38;;;;;;;;;;5056857;28;20036;-39
2023/12/01 02:49:09;;;;;;;12.43;6.72;;;;;;;;;;5042310;28;20039;-39
2023/12/01 02:51:34;;;;;;;13.50;7.45;;;;;;;;;;5044828;28;20032;-38
2023/12/01 02:54:00;;;;;;;15.25;6.82;;;;;;;;;;5057065;28;20130;-39
2023/12/01 02:56:25;;;;;;;16.52;7.20;;;;;;;;;;5059079;28;20013;-38
2023/12/01 02:58:50;;;;;;;15.07;6.88;;;;;;;;;;5054755;28;20115;-39
2023/12/01 03:01:15;;;;;;;13.45;6.15;;;;;;;;;;5056211;28;20521;-41
2023/12/01 03:03:42;;;;;;;14.02;7.18;;;;;;;;;;5058982;28;20028;-39
2023/12/01 03:06:08;;;;;;;15.32;7.05;;;;;;;;;;5065324;28;20036;-38
2023/12/01 03:08:33;;;;;;;15.70;7.38;;;;;;;;;;5067591;28;20043;-39
2023/12/01 03:10:58;;;;;;;20.48;8.52;;;;;;;;;;5064062;28;20029;-39
2023/12/01 03:13:24;;;;;;;14.02;6.00;;;;;;;;;;5067605;28;20490;-39
2023/12/01 03:15:49;;;;;;;10.57;5.72;;;;;;;;;;5055830;28;20028;-43
2023/12/01 03:18:15;;;;;;;13.57;6.30;;;;;;;;;;5059653;28;20051;-38
2023/12/01 03:20:41;;;;;;;10.68;6.38;;;;;;;;;;5064150;28;20755;-38
2023/12/01 03:23:06;;;;;;;12.50;6.10;;;;;;;;;;5064401;28;20024;-38
2023/12/01 03:25:33;;;;;;;11.90;5.50;;;;;;;;;;5062417;28;20033;-38
2023/12/01 03:27:58;;;;;;;15.57;7.22;;;;;;;;;;5061268;28;20082;-38
2023/12/01 03:30:23;;;;;;;18.00;7.82;;;;;;;;;;5062463;28;20021;-38
2023/12/01 03:32:50;;;;;;;20.83;7.95;;;;;;;;;;5062252;28;20106;-39
2023/12/01 03:35:16;;;;;;;18.15;8.07;;;;;;;;;;5063958;28;20028;-39
2023/12/01 03:37:41;;;;;;;16.83;7.70;;;;;;;;;;5063975;28;20028;-38
2023/12/01 03:40:08;;;;;;;15.48;8.07;;;;;;;;;;5059346;28;20024;-38
2023/12/01 03:42:34;;;;;;;11.30;6.35;;;;;;;;;;5059358;28;20024;-38
2023/12/01 03:44:59;;;;;;;17.00;7.95;;;;;;;;;;5065843;28;20032;-39
2023/12/01 03:47:24;;;;;;;15.38;8.00;;;;;;;;;;5065361;28;20021;-38
2023/12/01 03:49:49;;;;;;;16.45;7.65;;;;;;;;;;5063738;28;20111;-38
2023/12/01 03:52:15;;;;;;;12.93;7.32;;;;;;;;;;5060787;28;20782;-38
2023/12/01 03:54:40;;;;;;;19.70;7.30;;;;;;;;;;5062596;28;20048;-38
2023/12/01 03:57:05;;;;;;;17.13;8.10;;;;;;;;;;5061643;28;20039;-38
2023/12/01 03:59:31;;;;;;;19.98;9.23;;;;;;;;;;5059102;28;20021;-39
2023/12/01 04:01:56;;;;;;;16.83;7.68;;;;;;;;;;5058467;28;20111;-38
2023/12/01 04:04:21;;;;;;;23.77;8.85;;;;;;;;;;5043566;28;20494;-39
2023/12/01 04:06:46;;;;;;;19.65;9.10;;;;;;;;;;5058932;28;20040;-40
2023/12/01 04:09:12;;;;;;;19.90;7.78;;;;;;;;;;5060421;28;20036;-38
2023/12/01 04:11:38;;;;;;;19.40;8.13;;;;;;;;;;5062128;28;20039;-39
2023/12/01 04:14:04;;;;;;;23.20;8.50;;;;;;;;;;5059813;28;20123;-39
2023/12/01 04:16:32;;;;;;;19.05;7.93;;;;;;;;;;5054921;28;20435;-39
2023/12/01 04:18:57;;;;;;;22.02;7.32;;;;;;;;;;5060212;28;20059;-39
2023/12/01 04:21:23;;;;;;;24.30;7.40;;;;;;;;;;5064401;28;20363;-39
2023/12/01 04:23:48;;;;;;;24.27;8.77;;;;;;;;;;5063748;28;20032;-38
2023/12/01 04:26:13;;;;;;;24.45;7.82;;;;;;;;;;5058966;28;20131;-38
2023/12/01 04:28:39;;;;;;;20.75;8.20;;;;;;;;;;5060033;28;20037;-38
2023/12/01 04:31:05;;;;;;;20.02;7.43;;;;;;;;;;5061892;28;20021;-38
2023/12/01 04:33:31;;;;;;;16.05;7.65;;;;;;;;;;5061285;28;20066;-38
2023/12/01 04:35:56;;;;;;;21.25;10.13;;;;;;;;;;5060044;28;20055;-39
2023/12/01 04:38:21;;;;;;;19.73;9.88;;;;;;;;;;5062325;28;20024;-38
2023/12/01 04:40:47;;;;;;;23.00;7.75;;;;;;;;;;5063644;28;20528;-38
2023/12/01 04:43:12;;;;;;;12.48;5.78;;;;;;;;;;5045034;28;20060;-39
2023/12/01 04:45:37;;;;;;;10.68;5.40;;;;;;;;;;5063291;28;20043;-39
2023/12/01 04:48:03;;;;;;;21.20;7.82;;;;;;;;;;5065544;28;20033;-39
2023/12/01 04:50:30;;;;;;;17.80;7.38;;;;;;;;;;5061491;28;20078;-39
2023/12/01 04:52:56;;;;;;;21.73;7.50;;;;;;;;;;5064166;28;20024;-39
2023/12/01 04:55:25;;;;;;;14.07;7.25;;;;;;;;;;5057067;28;20008;-39
2023/12/01 04:57:51;;;;;;;17.77;6.43;;;;;;;;;;5059392;28;20021;-39
2023/12/01 05:00:21;;;;;;;13.05;6.55;;;;;;;;;;5053604;28;20028;-39
2023/12/01 05:02:59;;;;;;;11.32;6.88;;;;;;;;;;5057808;28;20099;-39
2023/12/01 05:05:25;;;;;;;21.23;8.02;;;;;;;;;;5036855;28;20020;-39
2023/12/01 05:07:52;;;;;;;17.20;7.38;;;;;;;;;;5057007;28;20040;-38
2023/12/01 05:10:21;;;;;;;25.15;7.47;;;;;;;;;;5053505;28;20082;-39
2023/12/01 05:12:50;;;;;;;17.95;7.13;;;;;;;;;;5059495;28;20406;-39
2023/12/01 05:15:17;;;;;;;13.57;6.40;;;;;;;;;;5039590;28;20028;-39
2023/12/01 05:17:43;;;;;;;14.02;6.07;;;;;;;;;;5063552;28;20017;-39
2023/12/01 05:20:15;;;;;;;16.33;6.85;;;;;;;;;;5062109;28;20388;-39
2023/12/01 05:22:40;;;;;;;17.20;6.85;;;;;;;;;;5062122;28;20029;-39
2023/12/01 05:25:06;;;;;;;15.10;6.95;;;;;;;;;;5057555;28;20086;-39
2023/12/01 05:27:31;;;;;;;14.70;6.00;;;;;;;;;;5054360;28;20107;-40
2023/12/01 05:29:56;;;;;;;12.95;5.68;;;;;;;;;;5057317;28;20033;-39
2023/12/01 05:32:22;;;;;;;11.23;5.80;;;;;;;;;;5055839;28;20020;-39
2023/12/01 05:34:47;;;;;;;17.35;5.63;;;;;;;;;;5044351;28;20036;-39
2023/12/01 05:37:12;;;;;;;15.15;5.93;;;;;;;;;;5059674;28;20734;-39
2023/12/01 05:39:38;;;;;;;18.20;7.38;;;;;;;;;;5059325;28;20078;-39
2023/12/01 05:42:04;;;;;;;18.02;7.72;;;;;;;;;;5060949;28;20036;-40
2023/12/01 05:44:30;;;;;;;24.65;9.82;;;;;;;;;;5064505;28;20082;-39
2023/12/01 05:46:55;;;;;;;26.20;11.35;;;;;;;;;;5059592;28;20036;-39
2023/12/01 05:49:20;;;;;;;33.97;13.77;;;;;;;;;;5053522;28;20552;-39
2023/12/01 05:51:47;;;;;;;29.02;11.60;;;;;;;;;;5062039;28;20112;-39
2023/12/01 05:54:13;;;;;;;30.10;11.68;;;;;;;;;;5061439;28;20012;-40
2023/12/01 05:56:38;;;;;;;19.75;8.48;;;;;;;;;;5063818;28;21195;-39
2023/12/01 05:59:04;;;;;;;22.98;9.05;;;;;;;;;;5040978;28;20025;-40
2023/12/01 06:01:30;;;;;;;14.23;7.28;;;;;;;;;;5059286;28;20031;-39
2023/12/01 06:03:55;;;;;;;12.15;6.22;;;;;;;;;;5061495;28;20040;-39
2023/12/01 06:06:20;;;;;;;13.85;6.85;;;;;;;;;;5045932;28;20036;-39
2023/12/01 06:08:46;;;;;;;14.35;5.85;;;;;;;;;;5055941;28;20032;-40
2023/12/01 06:11:11;;;;;;;16.88;7.32;;;;;;;;;;5056286;28;20036;-39
2023/12/01 06:13:36;;;;;;;11.52;5.95;;;;;;;;;;5061272;28;20395;-40
2023/12/01 06:16:02;;;;;;;15.27;5.95;;;;;;;;;;5041566;28;20051;-39
2023/12/01 06:18:29;;;;;;;13.75;5.75;;;;;;;;;;5057974;28;20024;-40
2023/12/01 06:20:55;;;;;;;6.35;3.85;;;;;;;;;;5054057;28;20021;-39
2023/12/01 06:23:20;;;;;;;9.27;4.32;;;;;;;;;;5060665;28;20078;-39
2023/12/01 06:25:46;;;;;;;9.02;5.15;;;;;;;;;;5055103;28;20037;-38
2023/12/01 06:28:12;;;;;;;10.02;5.15;;;;;;;;;;5061432;28;20036;-39
2023/12/01 06:30:37;;;;;;;16.92;5.80;;;;;;;;;;5061668;28;20024;-39
2023/12/01 06:33:03;;;;;;;11.40;5.80;;;;;;;;;;5066906;28;20458;-39
2023/12/01 06:35:29;;;;;;;13.63;5.97;;;;;;;;;;5066000;28;20021;-39
2023/12/01 06:37:54;;;;;;;15.95;6.55;;;;;;;;;;5047110;28;20024;-39
2023/12/01 06:40:20;;;;;;;14.32;5.72;;;;;;;;;;5068859;28;20033;-39
2023/12/01 06:42:48;;;;;;;13.18;4.88;;;;;;;;;;5061925;28;20024;-39
2023/12/01 06:45:18;;;;;;;10.98;5.93;;;;;;;;;;5059900;28;20032;-38
2023/12/01 06:47:47;;;;;;;17.30;7.63;;;;;;;;;;5041693;28;20081;-40
2023/12/01 06:50:16;;;;;;;13.02;5.47;;;;;;;;;;5064662;28;20024;-38
2023/12/01 06:52:43;;;;;;;12.40;6.45;;;;;;;;;;5066649;28;20475;-39
2023/12/01 06:55:08;;;;;;;12.00;5.85;;;;;;;;;;5065552;28;20044;-38
2023/12/01 06:57:36;;;;;;;12.57;6.13;;;;;;;;;;5065392;28;20029;-38
2023/12/01 07:00:01;;;;;;;9.35;4.78;;;;;;;;;;5066209;28;20112;-39
2023/12/01 07:02:26;;;;;;;11.57;5.53;;;;;;;;;;5062303;28;20108;-38
2023/12/01 07:04:55;;;;;;;10.40;5.38;;;;;;;;;;5048547;28;20036;-38
2023/12/01 07:07:20;;;;;;;10.50;4.65;;;;;;;;;;5052913;28;20035;-38
2023/12/01 07:09:47;;;;;;;12.15;5.53;;;;;;;;;;5066958;28;20036;-38
2023/12/01 07:12:13;;;;;;;10.23;5.72;;;;;;;;;;5060229;28;20716;-39
2023/12/01 07:14:38;;;;;;;14.20;5.55;;;;;;;;;;5068482;28;20028;-39
2023/12/01 07:17:06;;;;;;;15.73;7.68;;;;;;;;;;5067919;28;20024;-39
2023/12/01 07:19:32;;;;;;;17.02;8.43;;;;;;;;;;5068903;28;20025;-39
2023/12/01 07:21:58;;;;;;;9.45;6.05;;;;;;;;;;5063744;28;20017;-37
2023/12/01 07:24:24;;;;;;;41.55;17.90;;;;;;;;;;5059020;28;20035;-38
2023/12/01 07:26:51;;;;;;;34.72;15.75;;;;;;;;;;5060228;28;20036;-38
2023/12/01 07:29:18;;;;;;;22.05;9.93;;;;;;;;;;5059002;28;20020;-38
2023/12/01 07:31:44;;;;;;;12.45;7.50;;;;;;;;;;5062334;28;20070;-39
2023/12/01 07:34:10;;;;;;;15.73;7.95;;;;;;;;;;5045968;28;20061;-38
2023/12/01 07:36:36;;;;;;;10.80;6.15;;;;;;;;;;5065971;28;20119;-40
2023/12/01 07:39:01;;;;;;;14.68;6.63;;;;;;;;;;5064004;28;20095;-38
2023/12/01 07:41:26;;;;;;;20.55;7.05;;;;;;;;;;5049348;28;20020;-40
2023/12/01 07:43:52;;;;;;;7.40;3.95;;;;;;;;;;5066218;28;20383;-40
2023/12/01 07:46:17;;;;;;;10.00;6.10;;;;;;;;;;5061802;28;20423;-39
2023/12/01 07:48:42;;;;;;;10.75;6.38;;;;;;;;;;5067658;28;20050;-39
2023/12/01 07:51:08;;;;;;;12.25;6.50;;;;;;;;;;5066450;28;20817;-39
2023/12/01 07:53:33;;;;;;;16.35;5.72;;;;;;;;;;5051982;28;20083;-39
2023/12/01 07:55:59;;;;;;;10.13;5.13;;;;;;;;;;5061624;28;20024;-39
2023/12/01 07:58:24;;;;;;;12.23;5.57;;;;;;;;;;5063243;28;20103;-39
2023/12/01 08:00:50;;;;;;;12.50;5.57;;;;;;;;;;5066489;28;20108;-39
2023/12/01 08:03:15;;;;;;;17.45;6.25;;;;;;;;;;5068379;28;20421;-39
2023/12/01 08:05:41;;;;;;;11.20;5.40;;;;;;;;;;5048378;28;20503;-39
2023/12/01 08:08:06;;;;;;;11.52;5.15;;;;;;;;;;5069713;28;20441;-39
2023/12/01 08:10:31;;;;;;;16.92;8.18;;;;;;;;;;5063283;28;20481;-38
2023/12/01 08:12:57;;;;;;;26.02;8.82;;;;;;;;;;5066514;28;20070;-38
2023/12/01 08:15:23;;;;;;;10.80;6.07;;;;;;;;;;5058011;28;20557;-39
2023/12/01 08:17:48;;;;;;;10.52;5.80;;;;;;;;;;5061798;28;20025;-39
2023/12/01 08:20:16;;;;;;;12.23;4.90;;;;;;;;;;5057418;28;20021;-39
2023/12/01 08:22:48;;;;;;;11.40;6.05;;;;;;;;;;5047475;28;20028;-39
2023/12/01 08:25:14;;;;;;;17.40;5.07;;;;;;;;;;5061988;28;20054;-39
2023/12/01 08:27:40;;;;;;;13.02;6.05;;;;;;;;;;5065810;28;20033;-39
2023/12/01 08:30:06;;;;;;;14.68;6.68;;;;;;;;;;5062691;28;20070;-38
2023/12/01 08:32:32;;;;;;;10.25;4.90;;;;;;;;;;5058956;28;20074;-38
2023/12/01 08:34:57;;;;;;;12.13;5.25;;;;;;;;;;5054759;28;20110;-38
2023/12/01 08:37:23;;;;;;;12.82;5.63;;;;;;;;;;5065468;28;20059;-39
2023/12/01 08:39:49;;;;;;;13.82;5.10;;;;;;;;;;5067015;28;20078;-38
2023/12/01 08:42:14;;;;;;;12.23;5.63;;;;;;;;;;5067582;28;20393;-39
2023/12/01 08:44:40;;;;;;;11.93;6.47;;;;;;;;;;5068617;28;20037;-39
2023/12/01 08:47:05;;;;;;;21.23;9.07;;;;;;;;;;5062618;28;20028;-38
2023/12/01 08:49:30;;;;;;;12.65;6.15;;;;;;;;;;5062168;28;20044;-38
2023/12/01 08:51:56;;;;;;;12.73;6.25;;;;;;;;;;5064787;28;20032;-39
2023/12/01 08:54:23;;;;;;;17.83;8.82;;;;;;;;;;5065887;28;20020;-39
2023/12/01 08:56:49;;;;;;;18.52;7.38;;;;;;;;;;5039904;28;20791;-39
2023/12/01 08:59:14;;;;;;;15.38;5.63;;;;;;;;;;5064442;28;20024;-39
2023/12/01 09:01:40;;;;;;;17.55;7.82;;;;;;;;;;5065337;28;20404;-39
2023/12/01 09:04:06;;;;;;;15.20;5.95;;;;;;;;;;5053832;28;20019;-39
2023/12/01 09:06:31;;;;;;;12.77;6.45;;;;;;;;;;5066842;28;20020;-39
2023/12/01 09:08:57;;;;;;;14.38;7.38;;;;;;;;;;5066545;28;20038;-39
2023/12/01 09:11:22;;;;;;;12.52;6.30;;;;;;;;;;5040597;28;20032;-39
2023/12/01 09:13:47;;;;;;;9.48;5.05;;;;;;;;;;5061432;28;20064;-40
2023/12/01 09:16:12;;;;;;;13.27;5.88;;;;;;;;;;5045102;28;20035;-39
2023/12/01 09:18:38;;;;;;;12.98;5.40;;;;;;;;;;5046932;28;20021;-39
2023/12/01 09:21:03;;;;;;;11.27;5.20;;;;;;;;;;5047839;28;20067;-39
2023/12/01 09:23:29;;;;;;;10.05;5.75;;;;;;;;;;5039099;28;20557;-40
2023/12/01 09:25:55;;;;;;;20.85;10.00;;;;;;;;;;5060550;28;20429;-39
2023/12/01 09:28:20;;;;;;;18.63;8.38;;;;;;;;;;5065020;28;20031;-39
2023/12/01 09:30:45;;;;;;;15.82;6.88;;;;;;;;;;5055403;28;20552;-39
2023/12/01 09:33:10;;;;;;;13.65;5.55;;;;;;;;;;5037581;28;20056;-39
2023/12/01 09:35:36;;;;;;;11.38;4.85;;;;;;;;;;5056799;28;22198;-39
2023/12/01 09:38:01;;;;;;;11.98;6.40;;;;;;;;;;5059594;28;20388;-39
2023/12/01 09:40:26;;;;;;;16.55;6.30;;;;;;;;;;5057442;28;20021;-39
2023/12/01 09:42:53;;;;;;;12.52;5.95;;;;;;;;;;5055973;28;20047;-39
2023/12/01 09:45:22;;;;;;;11.80;5.85;;;;;;;;;;5056506;28;20471;-39
2023/12/01 09:47:51;;;;;;;14.48;6.00;;;;;;;;;;5049704;28;20021;-40
2023/12/01 09:50:17;;;;;;;17.02;5.93;;;;;;;;;;5055069;28;20036;-40
2023/12/01 09:52:43;;;;;;;15.25;5.85;;;;;;;;;;5062647;28;20073;-39
2023/12/01 09:55:08;;;;;;;16.25;7.88;;;;;;;;;;5057102;28;20041;-38
2023/12/01 09:57:34;;;;;;;13.35;6.80;;;;;;;;;;5054511;28;20107;-40
2023/12/01 10:00:00;;;;;;;13.55;6.38;;;;;;;;;;5060163;28;20071;-39
2023/12/01 10:02:25;;;;;;;14.95;5.85;;;;;;;;;;5053392;28;20031;-39
2023/12/01 10:04:58;;;;;;;11.43;5.63;;;;;;;;;;5059809;28;20020;-39
2023/12/01 10:07:24;;;;;;;13.20;5.90;;;;;;;;;;5058217;28;20029;-40
2023/12/01 10:09:49;;;;;;;12.10;6.35;;;;;;;;;;5059706;28;20437;-38
2023/12/01 10:12:15;;;;;;;10.50;5.50;;;;;;;;;;5062256;28;20033;-40
2023/12/01 10:14:43;;;;;;;14.35;6.35;;;;;;;;;;5064726;28;20020;-40
2023/12/01 10:17:12;;;;;;;12.23;5.93;;;;;;;;;;5063477;28;20036;-39
2023/12/01 10:19:47;;;;;;;10.25;5.93;;;;;;;;;;5061718;28;20473;-39
2023/12/01 10:22:13;;;;;;;12.95;7.13;;;;;;;;;;5054345;28;20104;-38
2023/12/01 10:24:38;;;;;;;11.65;5.05;;;;;;;;;;5052479;28;20671;-41
2023/12/01 10:27:08;;;;;;;12.27;6.40;;;;;;;;;;5057258;28;20055;-39
2023/12/01 10:29:34;;;;;;;19.33;6.97;;;;;;;;;;5062501;28;20036;-39
2023/12/01 10:32:03;;;;;;;13.10;7.05;;;;;;;;;;5063922;28;20032;-40
2023/12/01 10:34:28;;;;;;;15.45;6.03;;;;;;;;;;5058834;28;20052;-39
2023/12/01 10:36:54;;;;;;;19.40;6.18;;;;;;;;;;5055115;28;20074;-40
2023/12/01 10:39:29;;;;;;;13.63;5.82;;;;;;;;;;5057721;28;20021;-38
2023/12/01 10:41:55;;;;;;;6.30;3.53;;;;;;;;;;5052092;28;20050;-39
2023/12/01 10:44:22;;;;;;;11.90;5.25;;;;;;;;;;5058653;28;20391;-38
2023/12/01 10:46:47;;;;;;;12.43;6.63;;;;;;;;;;5063337;28;20025;-40
2023/12/01 10:49:14;;;;;;;16.02;6.85;;;;;;;;;;5063277;28;20029;-38
2023/12/01 10:51:40;;;;;;;24.15;6.50;;;;;;;;;;5061812;28;20032;-38
2023/12/01 10:54:08;;;;;;;15.15;6.18;;;;;;;;;;5062582;28;20147;-39
2023/12/01 10:56:35;;;;;;;11.55;6.07;;;;;;;;;;5059824;28;20033;-40
2023/12/01 10:59:01;;;;;;;13.43;6.57;;;;;;;;;;5061614;28;20025;-39
2023/12/01 11:01:27;;;;;;;14.63;7.38;;;;;;;;;;5056457;28;20442;-39
2023/12/01 11:03:55;;;;;;;16.00;7.95;;;;;;;;;;5058340;28;20029;-38
2023/12/01 11:06:31;;;;;;;15.48;7.05;;;;;;;;;;5062634;28;20029;-39
2023/12/01 11:09:17;;;;;;;16.23;6.70;;;;;;;;;;5053760;28;20028;-39
2023/12/01 11:12:09;;;;;;;13.55;7.05;;;;;;;;;;5055760;28;20040;-40
2023/12/01 11:14:35;;;;;;;14.67;6.50;;;;;;;;;;5051205;28;20036;-39
2023/12/01 11:17:00;;;;;;;18.88;8.32;;;;;;;;;;5057730;28;20090;-40
2023/12/01 11:19:37;;;;;;;14.70;7.57;;;;;;;;;;5051567;28;20020;-39
2023/12/01 11:22:21;;;;;;;11.38;6.63;;;;;;;;;;5038523;28;20032;-39
2023/12/01 11:24:46;;;;;;;17.77;6.50;;;;;;;;;;5055215;28;20085;-37
2023/12/01 11:27:14;;;;;;;13.20;6.35;;;;;;;;;;5058150;28;20028;-38
2023/12/01 11:29:57;;;;;;;17.05;7.43;;;;;;;;;;5066475;28;20110;-38
2023/12/01 11:32:30;;;;;;;18.00;7.68;;;;;;;;;;5061158;28;20017;-40
2023/12/01 11:35:06;;;;;;;12.45;5.53;;;;;;;;;;5060056;28;20542;-39
2023/12/01 11:37:50;;;;;;;6.65;3.78;;;;;;;;;;5063776;28;20020;-39
2023/12/01 11:40:20;;;;;;;16.45;6.65;;;;;;;;;;5059034;28;20039;-39
2023/12/01 11:42:47;;;;;;;13.23;6.38;;;;;;;;;;5055451;28;20037;-40
2023/12/01 11:45:15;;;;;;;15.05;5.75;;;;;;;;;;5056727;28;20029;-39
2023/12/01 11:47:41;;;;;;;9.45;5.03;;;;;;;;;;5063889;28;20029;-41
2023/12/01 11:50:07;;;;;;;12.68;6.38;;;;;;;;;;5067142;28;20036;-40
2023/12/01 11:52:34;;;;;;;14.18;6.05;;;;;;;;;;5059030;28;20456;-39
2023/12/01 11:55:00;;;;;;;12.50;6.10;;;;;;;;;;5061726;28;20099;-38
2023/12/01 11:57:25;;;;;;;10.45;4.95;;;;;;;;;;5058782;28;20495;-40
2023/12/01 11:59:51;;;;;;;15.98;5.13;;;;;;;;;;5056939;28;20099;-40
2023/12/01 12:02:16;;;;;;;8.80;3.45;;;;;;;;;;5062467;28;20021;-38
2023/12/01 12:04:48;;;;;;;15.40;5.80;;;;;;;;;;5040881;28;20036;-39
2023/12/01 12:07:15;;;;;;;12.23;5.78;;;;;;;;;;5042039;28;20029;-40
2023/12/01 12:09:40;;;;;;;13.68;5.60;;;;;;;;;;5059747;28;20031;-39
2023/12/01 12:12:09;;;;;;;7.60;4.05;;;;;;;;;;5036890;28;20033;-40
2023/12/01 12:14:37;;;;;;;10.98;6.22;;;;;;;;;;5062935;28;20507;-40
2023/12/01 12:17:03;;;;;;;12.60;5.15;;;;;;;;;;5061587;28;20028;-39
2023/12/01 12:19:38;;;;;;;13.40;5.65;;;;;;;;;;5064171;28;20024;-39
2023/12/01 12:22:04;;;;;;;12.93;6.13;;;;;;;;;;5062132;28;20023;-39
2023/12/01 12:24:30;;;;;;;11.13;5.57;;;;;;;;;;5059171;28;20028;-39
2023/12/01 12:26:58;;;;;;;14.40;7.00;;;;;;;;;;5061944;28;20506;-41
2023/12/01 12:29:24;;;;;;;13.77;5.68;;;;;;;;;;5065211;28;20412;-39
2023/12/01 12:31:51;;;;;;;14.75;5.70;;;;;;;;;;5062029;28;20535;-40
2023/12/01 12:34:16;;;;;;;10.10;5.32;;;;;;;;;;5063729;28;20400;-39
2023/12/01 12:36:43;;;;;;;16.48;6.63;;;;;;;;;;5060953;28;20024;-39
2023/12/01 12:39:13;;;;;;;11.65;5.90;;;;;;;;;;5062368;28;20016;-40
2023/12/01 12:41:40;;;;;;;12.27;6.00;;;;;;;;;;5061772;28;20024;-41
2023/12/01 12:44:06;;;;;;;12.18;5.75;;;;;;;;;;5060483;28;20501;-40
2023/12/01 12:46:33;;;;;;;12.45;6.80;;;;;;;;;;5038577;28;20032;-39
2023/12/01 12:49:08;;;;;;;10.90;5.20;;;;;;;;;;5061457;28;20043;-41
2023/12/01 12:51:34;;;;;;;12.40;6.05;;;;;;;;;;5039379;28;20024;-40
2023/12/01 12:53:59;;;;;;;13.65;5.82;;;;;;;;;;5060069;28;20027;-37
2023/12/01 12:56:26;;;;;;;17.27;7.50;;;;;;;;;;5060250;28;20019;-40
2023/12/01 12:58:52;;;;;;;13.88;6.53;;;;;;;;;;5061155;28;20020;-40
2023/12/01 13:01:18;;;;;;;10.73;5.95;;;;;;;;;;5058152;28;20027;-39
2023/12/01 13:03:44;;;;;;;11.50;6.68;;;;;;;;;;5058781;28;20033;-39
2023/12/01 13:06:09;;;;;;;15.73;7.93;;;;;;;;;;5058244;28;20028;-39
2023/12/01 13:08:36;;;;;;;13.68;5.78;;;;;;;;;;5062513;28;20031;-38
2023/12/01 13:11:02;;;;;;;16.88;7.20;;;;;;;;;;5063016;28;20161;-39
2023/12/01 13:13:27;;;;;;;12.07;5.50;;;;;;;;;;5063258;28;20021;-39
2023/12/01 13:15:53;;;;;;;11.93;5.43;;;;;;;;;;5064752;28;20012;-39
2023/12/01 13:18:18;;;;;;;12.20;5.68;;;;;;;;;;5047044;28;20383;-39
2023/12/01 13:20:44;;;;;;;11.68;6.50;;;;;;;;;;5061490;28;20032;-39
2023/12/01 13:23:09;;;;;;;12.15;5.55;;;;;;;;;;5062908;28;20044;-40
2023/12/01 13:25:34;;;;;;;12.38;5.45;;;;;;;;;;5059858;28;20031;-39
2023/12/01 13:28:00;;;;;;;12.00;5.35;;;;;;;;;;5063201;28;20029;-39
2023/12/01 13:30:25;;;;;;;14.02;5.30;;;;;;;;;;5065798;28;20020;-39
2023/12/01 13:32:50;;;;;;;10.20;5.53;;;;;;;;;;5067192;28;20121;-39
2023/12/01 13:35:16;;;;;;;12.60;5.57;;;;;;;;;;5063450;28;20040;-39
2023/12/01 13:37:41;;;;;;;11.13;5.60;;;;;;;;;;5062610;28;20116;-39
2023/12/01 13:40:10;;;;;;;16.85;7.07;;;;;;;;;;5064592;28;20029;-39
2023/12/01 13:42:36;;;;;;;9.48;5.40;;;;;;;;;;5059874;28;20032;-39
2023/12/01 13:45:02;;;;;;;11.48;5.90;;;;;;;;;;5054141;28;20028;-39
2023/12/01 13:47:27;;;;;;;10.38;4.68;;;;;;;;;;5059046;28;20107;-39
2023/12/01 13:49:53;;;;;;;12.65;5.47;;;;;;;;;;5056475;28;20081;-39
2023/12/01 13:52:18;;;;;;;12.63;5.50;;;;;;;;;;5056292;28;20024;-39
2023/12/01 13:54:43;;;;;;;13.13;5.45;;;;;;;;;;5057560;28;20450;-38
2023/12/01 13:57:09;;;;;;;12.63;5.60;;;;;;;;;;5051395;28;20555;-39
2023/12/01 13:59:34;;;;;;;13.18;6.15;;;;;;;;;;5057326;28;20040;-39
2023/12/01 14:01:59;;;;;;;11.95;5.97;;;;;;;;;;5057367;28;20059;-39
2023/12/01 14:04:24;;;;;;;12.77;6.38;;;;;;;;;;5055577;28;20046;-39
2023/12/01 14:06:50;;;;;;;12.70;6.18;;;;;;;;;;5057974;28;20036;-39
2023/12/01 14:09:16;;;;;;;11.55;5.95;;;;;;;;;;5052400;28;20127;-39
2023/12/01 14:11:42;;;;;;;11.25;6.00;;;;;;;;;;5059078;28;20021;-39
2023/12/01 14:14:07;;;;;;;14.68;6.63;;;;;;;;;;5060607;28;20037;-39
2023/12/01 14:16:32;;;;;;;11.93;5.75;;;;;;;;;;5059925;28;20355;-39
2023/12/01 14:18:58;;;;;;;12.40;5.57;;;;;;;;;;5061291;28;20108;-39
2023/12/01 14:21:23;;;;;;;11.70;5.45;;;;;;;;;;5061674;28;20039;-39
2023/12/01 14:23:49;;;;;;;12.73;7.63;;;;;;;;;;5059241;28;20021;-39
2023/12/01 14:26:15;;;;;;;24.58;10.98;;;;;;;;;;5062410;28;20082;-39